createdAt,value
2018-03-18T00:01:09.143Z,27.63
2018-03-18T00:03:36.746Z,14.17
2018-03-18T00:06:04.316Z,24.27
2018-03-18T00:08:31.929Z,20.87
2018-03-18T00:10:59.570Z,21.07
2018-03-18T00:13:27.201Z,17.77
2018-03-18T00:15:54.770Z,25.63
2018-03-18T00:18:22.322Z,13.30
2018-03-18T00:20:49.943Z,17.33
2018-03-18T00:23:17.506Z,20.77
2018-03-18T00:25:45.118Z,20.53
2018-03-18T00:28:12.693Z,21.30
2018-03-18T00:30:40.280Z,28.50
2018-03-18T00:33:07.860Z,21.87
2018-03-18T00:35:35.426Z,23.33
2018-03-18T00:38:03.063Z,14.83
2018-03-18T00:40:30.635Z,12.37
2018-03-18T00:42:58.262Z,15.13
2018-03-18T00:45:25.886Z,13.50
2018-03-18T00:47:53.450Z,18.97
2018-03-18T00:50:21.016Z,28.33
2018-03-18T00:52:48.582Z,14.67
2018-03-18T00:55:16.170Z,13.23
2018-03-18T00:57:43.734Z,20.07
2018-03-18T01:00:11.315Z,27.47
2018-03-18T01:02:38.951Z,16.27
2018-03-18T01:05:06.572Z,17.63
2018-03-18T01:07:34.133Z,17.40
2018-03-18T01:10:01.695Z,20.80
2018-03-18T01:12:29.266Z,22.57
2018-03-18T01:14:56.835Z,22.57
2018-03-18T01:17:24.410Z,17.93
2018-03-18T01:19:51.982Z,36.97
2018-03-18T01:22:19.546Z,18.30
2018-03-18T01:24:47.110Z,31.40
2018-03-18T01:27:14.800Z,12.67
2018-03-18T01:29:42.437Z,16.93
2018-03-18T01:32:10.006Z,20.50
2018-03-18T01:34:37.636Z,20.57
2018-03-18T01:37:05.269Z,35.13
2018-03-18T01:39:32.900Z,45.73
2018-03-18T01:42:00.553Z,53.87
2018-03-18T01:44:28.178Z,64.17
2018-03-18T01:46:55.807Z,49.23
2018-03-18T01:49:23.401Z,108.20
2018-03-18T01:51:50.969Z,85.33
2018-03-18T01:54:18.586Z,78.00
2018-03-18T01:56:46.218Z,71.30
2018-03-18T01:59:13.838Z,74.77
2018-03-18T02:01:41.426Z,113.60
2018-03-18T02:04:08.998Z,88.10
2018-03-18T02:06:36.619Z,100.97
2018-03-18T02:09:04.259Z,94.57
2018-03-18T02:11:31.841Z,108.27
2018-03-18T02:13:59.481Z,106.87
2018-03-18T02:16:27.104Z,134.10
2018-03-18T02:18:54.735Z,129.17
2018-03-18T02:21:22.388Z,111.97
2018-03-18T02:23:49.966Z,120.50
2018-03-18T02:26:17.537Z,145.43
2018-03-18T02:28:45.113Z,93.23
2018-03-18T02:31:12.702Z,72.83
2018-03-18T02:33:40.343Z,85.73
2018-03-18T02:36:07.971Z,60.23
2018-03-18T02:38:35.695Z,51.43
2018-03-18T02:41:03.262Z,54.83
2018-03-18T02:43:30.833Z,58.07
2018-03-18T02:45:58.408Z,50.13
2018-03-18T02:48:26.031Z,47.00
2018-03-18T02:50:53.630Z,30.40
2018-03-18T02:53:21.232Z,24.93
2018-03-18T02:55:48.873Z,21.73
2018-03-18T02:58:16.499Z,23.27
2018-03-18T03:00:44.187Z,19.07
2018-03-18T03:03:11.775Z,16.70
2018-03-18T03:05:39.352Z,16.27
2018-03-18T03:08:06.941Z,10.47
2018-03-18T03:10:34.575Z,13.13
2018-03-18T03:13:02.210Z,21.07
2018-03-18T03:15:29.784Z,12.90
2018-03-18T03:17:57.354Z,28.03
2018-03-18T03:20:24.914Z,13.70
2018-03-18T03:22:52.473Z,19.00
2018-03-18T03:25:20.047Z,24.13
2018-03-18T03:27:47.675Z,26.43
2018-03-18T03:30:15.266Z,19.87
2018-03-18T03:32:42.834Z,17.97
2018-03-18T03:35:10.478Z,17.70
2018-03-18T03:37:38.037Z,23.20
2018-03-18T03:40:05.602Z,20.73
2018-03-18T03:42:33.231Z,19.57
2018-03-18T03:45:00.791Z,29.60
2018-03-18T03:47:28.368Z,11.10
2018-03-18T03:49:55.995Z,25.47
2018-03-18T03:52:23.566Z,18.20
2018-03-18T03:54:51.201Z,24.10
2018-03-18T03:57:18.818Z,21.27
2018-03-18T03:59:46.382Z,17.43
2018-03-18T04:02:13.947Z,20.40
2018-03-18T04:04:41.574Z,20.63
2018-03-18T04:07:09.134Z,28.43
2018-03-18T04:09:36.706Z,45.87
2018-03-18T04:12:04.278Z,24.07
2018-03-18T04:14:31.907Z,15.60
2018-03-18T04:16:59.482Z,26.00
2018-03-18T04:19:27.122Z,24.40
2018-03-18T04:21:54.691Z,17.67
2018-03-18T04:24:22.259Z,19.57
2018-03-18T04:26:49.845Z,18.47
2018-03-18T04:29:17.406Z,22.60
2018-03-18T04:31:44.969Z,18.60
2018-03-18T04:34:12.530Z,23.13
2018-03-18T04:36:40.103Z,17.53
2018-03-18T04:39:07.671Z,24.70
2018-03-18T04:41:35.285Z,23.77
2018-03-18T04:44:02.895Z,28.10
2018-03-18T04:46:30.467Z,24.13
2018-03-18T04:48:58.042Z,24.73
2018-03-18T04:51:25.669Z,24.80
2018-03-18T04:53:53.308Z,20.00
2018-03-18T04:56:20.890Z,17.37
2018-03-18T04:58:48.530Z,26.20
2018-03-18T05:01:16.090Z,21.17
2018-03-18T05:03:43.719Z,25.23
2018-03-18T05:06:11.279Z,32.93
2018-03-18T05:08:38.910Z,28.60
2018-03-18T05:11:06.550Z,24.30
2018-03-18T05:13:34.114Z,22.60
2018-03-18T05:16:01.755Z,21.53
2018-03-18T05:18:29.315Z,17.60
2018-03-18T05:20:56.890Z,24.70
2018-03-18T05:23:24.462Z,20.53
2018-03-18T05:25:52.149Z,23.77
2018-03-18T05:28:19.839Z,29.00
2018-03-18T05:30:47.415Z,20.40
2018-03-18T05:33:15.006Z,17.00
2018-03-18T05:35:42.578Z,19.30
2018-03-18T05:38:10.183Z,23.07
2018-03-18T05:40:37.745Z,21.87
2018-03-18T05:43:05.322Z,15.47
2018-03-18T05:45:32.880Z,23.53
2018-03-18T05:48:00.498Z,24.63
2018-03-18T05:50:28.120Z,19.03
2018-03-18T05:52:55.699Z,20.30
2018-03-18T05:55:23.327Z,25.10
2018-03-18T05:57:50.896Z,17.03
2018-03-18T06:00:18.467Z,20.17
2018-03-18T06:02:46.040Z,29.10
2018-03-18T06:05:13.679Z,24.40
2018-03-18T06:07:41.321Z,40.73
2018-03-18T06:10:09.020Z,23.10
2018-03-18T06:12:36.594Z,29.13
2018-03-18T06:15:04.206Z,22.77
2018-03-18T06:17:31.851Z,25.50
2018-03-18T06:19:59.410Z,20.33
2018-03-18T06:22:27.047Z,22.90
2018-03-18T06:24:54.686Z,22.73
2018-03-18T06:27:22.232Z,23.83
2018-03-18T06:29:49.798Z,26.77
2018-03-18T06:32:17.479Z,20.40
2018-03-18T06:34:45.046Z,25.73
2018-03-18T06:37:12.619Z,26.67
2018-03-18T06:39:40.202Z,25.97
2018-03-18T06:42:07.862Z,32.70
2018-03-18T06:44:35.502Z,27.93
2018-03-18T06:47:03.074Z,19.93
2018-03-18T06:49:30.694Z,29.40
2018-03-18T06:51:58.262Z,30.03
2018-03-18T06:54:25.913Z,20.90
2018-03-18T06:56:53.495Z,24.77
2018-03-18T06:59:21.138Z,25.40
2018-03-18T07:01:48.725Z,26.90
2018-03-18T07:04:16.360Z,26.03
2018-03-18T07:06:44.056Z,28.27
2018-03-18T07:09:11.696Z,26.50
2018-03-18T07:11:39.264Z,31.67
2018-03-18T07:14:06.915Z,24.83
2018-03-18T07:16:34.489Z,26.40
2018-03-18T07:19:02.061Z,24.13
2018-03-18T07:21:29.700Z,36.33
2018-03-18T07:23:57.330Z,57.23
2018-03-18T07:26:24.994Z,46.93
2018-03-18T07:28:52.638Z,31.53
2018-03-18T07:31:20.220Z,33.00
2018-03-18T07:33:47.797Z,35.43
2018-03-18T07:36:15.370Z,47.90
2018-03-18T07:38:42.950Z,31.40
2018-03-18T07:41:10.590Z,33.60
2018-03-18T07:43:38.150Z,46.27
2018-03-18T07:46:05.791Z,39.77
2018-03-18T07:48:33.370Z,37.83
2018-03-18T07:51:00.994Z,31.20
2018-03-18T07:53:28.567Z,33.47
2018-03-18T07:55:56.206Z,38.27
2018-03-18T07:58:23.850Z,42.03
2018-03-18T08:00:51.415Z,55.80
2018-03-18T08:03:19.047Z,43.13
2018-03-18T08:05:46.613Z,41.37
2018-03-18T08:08:14.289Z,40.70
2018-03-18T08:10:41.854Z,40.60
2018-03-18T08:13:09.422Z,54.07
2018-03-18T08:15:36.999Z,45.47
2018-03-18T08:18:05.603Z,48.70
2018-03-18T08:20:33.187Z,49.17
2018-03-18T08:23:00.822Z,49.57
2018-03-18T08:25:28.447Z,44.60
2018-03-18T08:27:56.382Z,42.40
2018-03-18T08:30:23.943Z,40.67
2018-03-18T08:32:51.527Z,40.87
2018-03-18T08:35:19.093Z,40.53
2018-03-18T08:37:47.219Z,46.40
2018-03-18T08:40:14.777Z,38.57
2018-03-18T08:42:42.416Z,40.47
2018-03-18T08:45:10.056Z,36.77
2018-03-18T08:47:38.841Z,40.90
2018-03-18T08:50:06.405Z,37.43
2018-03-18T08:52:33.970Z,34.00
2018-03-18T08:55:01.542Z,42.37
2018-03-18T08:57:29.118Z,38.83
2018-03-18T08:59:57.914Z,30.80
2018-03-18T09:02:25.530Z,33.30
2018-03-18T09:04:53.142Z,31.73
2018-03-18T09:07:20.768Z,36.93
2018-03-18T09:09:48.349Z,37.73
2018-03-18T09:12:15.923Z,28.77
2018-03-18T09:14:43.559Z,31.43
2018-03-18T09:17:11.160Z,35.93
2018-03-18T09:19:38.732Z,37.90
2018-03-18T09:22:06.346Z,45.93
2018-03-18T09:24:33.911Z,36.70
2018-03-18T09:27:03.359Z,37.50
2018-03-18T09:29:30.987Z,27.43
2018-03-18T09:31:58.555Z,38.97
2018-03-18T09:34:26.191Z,42.53
2018-03-18T09:36:53.818Z,39.20
2018-03-18T09:39:21.495Z,38.73
2018-03-18T09:41:49.066Z,38.00
2018-03-18T09:44:16.635Z,38.93
2018-03-18T09:46:44.213Z,39.90
2018-03-18T09:49:12.222Z,45.93
2018-03-18T09:51:39.789Z,47.90
2018-03-18T09:54:07.357Z,47.17
2018-03-18T09:56:35.803Z,45.50
2018-03-18T09:59:03.367Z,49.67
2018-03-18T10:01:31.834Z,48.97
2018-03-18T10:03:59.402Z,46.23
2018-03-18T10:06:27.019Z,40.73
2018-03-18T10:08:54.603Z,46.70
2018-03-18T10:11:22.228Z,35.47
2018-03-18T10:13:50.564Z,60.60
2018-03-18T10:16:18.196Z,42.67
2018-03-18T10:18:45.774Z,34.10
2018-03-18T10:21:14.419Z,40.23
2018-03-18T10:23:42.115Z,36.03
2018-03-18T10:26:09.778Z,38.00
2018-03-18T10:28:38.094Z,46.90
2018-03-18T10:31:05.722Z,30.07
2018-03-18T10:33:33.365Z,42.00
2018-03-18T10:36:01.047Z,37.20
2018-03-18T10:38:28.622Z,38.60
2018-03-18T10:40:56.246Z,39.60
2018-03-18T10:43:23.819Z,31.50
2018-03-18T10:45:52.259Z,25.90
2018-03-18T10:48:19.830Z,33.20
2018-03-18T10:50:47.459Z,36.13
2018-03-18T10:53:15.029Z,38.43
2018-03-18T10:55:42.655Z,38.23
2018-03-18T10:58:10.262Z,40.13
2018-03-18T11:00:43.803Z,29.20
2018-03-18T11:03:12.139Z,36.87
2018-03-18T11:05:39.768Z,34.63
2018-03-18T11:08:07.417Z,37.70
2018-03-18T11:10:35.038Z,30.13
2018-03-18T11:13:02.622Z,40.83
2018-03-18T11:15:30.220Z,48.47
2018-03-18T11:17:57.807Z,29.90
2018-03-18T11:20:25.459Z,32.30
2018-03-18T11:22:53.067Z,37.23
2018-03-18T11:25:20.683Z,31.53
2018-03-18T11:27:49.180Z,30.30
2018-03-18T11:30:16.778Z,44.27
2018-03-18T11:32:44.441Z,40.90
2018-03-18T11:35:12.122Z,35.23
2018-03-18T11:37:39.789Z,31.00
2018-03-18T11:40:07.418Z,32.13
2018-03-18T11:42:35.057Z,29.67
2018-03-18T11:45:02.679Z,59.57
2018-03-18T11:47:30.357Z,37.33
2018-03-18T11:49:57.980Z,38.73
2018-03-18T11:52:25.639Z,29.80
2018-03-18T11:54:53.223Z,64.97
2018-03-18T11:57:20.847Z,39.70
2018-03-18T11:59:48.427Z,41.80
2018-03-18T12:02:16.049Z,31.83
2018-03-18T12:04:43.682Z,35.07
2018-03-18T12:07:11.319Z,27.93
2018-03-18T12:09:38.967Z,31.73
2018-03-18T12:12:06.559Z,28.30
2018-03-18T12:14:34.136Z,26.63
2018-03-18T12:17:01.710Z,23.40
2018-03-18T12:19:29.380Z,19.77
2018-03-18T12:21:56.979Z,47.90
2018-03-18T12:24:24.554Z,45.00
2018-03-18T12:26:52.243Z,20.30
2018-03-18T12:29:19.827Z,20.17
2018-03-18T12:31:47.469Z,27.87
2018-03-18T12:34:15.112Z,27.53
2018-03-18T12:36:42.678Z,48.30
2018-03-18T12:39:10.358Z,88.90
2018-03-18T12:41:37.931Z,66.33
2018-03-18T12:44:05.804Z,71.37
2018-03-18T12:46:33.374Z,42.50
2018-03-18T12:49:00.946Z,21.10
2018-03-18T12:51:28.566Z,34.10
2018-03-18T12:53:56.192Z,18.30
2018-03-18T12:56:23.811Z,17.67
2018-03-18T12:58:51.494Z,15.07
2018-03-18T13:01:20.154Z,21.17
2018-03-18T13:03:47.828Z,37.53
2018-03-18T13:06:15.445Z,36.37
2018-03-18T13:08:43.004Z,14.73
2018-03-18T13:11:10.574Z,13.23
2018-03-18T13:13:38.172Z,9.33
2018-03-18T13:16:05.829Z,10.33
2018-03-18T13:18:33.402Z,17.57
2018-03-18T13:21:01.032Z,12.13
2018-03-18T13:23:28.669Z,13.43
2018-03-18T13:25:56.289Z,14.83
2018-03-18T13:28:24.128Z,9.13
2018-03-18T13:30:51.684Z,9.60
2018-03-18T13:33:19.255Z,11.27
2018-03-18T13:35:47.841Z,9.80
2018-03-18T13:38:16.316Z,11.23
2018-03-18T13:40:44.802Z,9.43
2018-03-18T13:43:12.361Z,10.33
2018-03-18T13:45:40.951Z,11.33
2018-03-18T13:48:08.509Z,5.07
2018-03-18T13:50:36.080Z,9.13
2018-03-18T13:53:03.639Z,4.53
2018-03-18T13:55:31.208Z,8.30
2018-03-18T13:57:59.787Z,2.97
2018-03-18T14:00:27.425Z,4.30
2018-03-18T14:02:54.986Z,6.77
2018-03-18T14:05:22.612Z,5.53
2018-03-18T14:07:50.274Z,22.90
2018-03-18T14:10:17.846Z,8.33
2018-03-18T14:12:45.439Z,6.13
2018-03-18T14:15:13.015Z,7.30
2018-03-18T14:17:40.600Z,8.30
2018-03-18T14:20:08.168Z,5.73
2018-03-18T14:22:35.874Z,5.57
2018-03-18T14:25:03.526Z,4.57
2018-03-18T14:27:31.252Z,25.63
2018-03-18T14:29:58.976Z,6.50
2018-03-18T14:32:26.610Z,5.83
2018-03-18T14:34:54.300Z,12.23
2018-03-18T14:37:21.955Z,19.03
2018-03-18T14:39:49.567Z,14.40
2018-03-18T14:42:17.245Z,14.50
2018-03-18T14:44:44.935Z,12.30
2018-03-18T14:47:12.514Z,21.00
2018-03-18T14:49:40.075Z,25.77
2018-03-18T14:52:07.687Z,26.03
2018-03-18T14:54:35.354Z,11.23
2018-03-18T14:57:04.001Z,6.10
2018-03-18T14:59:31.723Z,8.90
2018-03-18T15:01:59.333Z,7.50
2018-03-18T15:04:26.923Z,8.37
2018-03-18T15:06:54.546Z,14.60
2018-03-18T15:09:22.113Z,26.67
2018-03-18T15:11:49.803Z,20.07
2018-03-18T15:14:17.445Z,31.07
2018-03-18T15:16:45.125Z,33.03
2018-03-18T15:19:12.756Z,24.40
2018-03-18T15:21:40.456Z,34.23
2018-03-18T15:24:08.264Z,55.07
2018-03-18T15:26:35.978Z,81.00
2018-03-18T15:29:03.668Z,48.37
2018-03-18T15:31:31.412Z,46.77
2018-03-18T15:33:59.030Z,32.33
2018-03-18T15:36:26.615Z,40.00
2018-03-18T15:38:54.238Z,42.93
2018-03-18T15:41:21.880Z,40.90
2018-03-18T15:43:49.459Z,34.87
2018-03-18T15:46:18.009Z,31.43
2018-03-18T15:48:45.596Z,27.63
2018-03-18T15:51:13.194Z,42.03
2018-03-18T15:53:40.841Z,26.03
2018-03-18T15:56:08.451Z,25.20
2018-03-18T15:58:36.028Z,19.97
2018-03-18T16:01:03.605Z,29.93
2018-03-18T16:03:31.228Z,27.57
2018-03-18T16:05:58.852Z,38.53
2018-03-18T16:08:26.475Z,27.03
2018-03-18T16:10:54.895Z,33.50
2018-03-18T16:13:22.454Z,46.50
2018-03-18T16:15:50.108Z,33.77
2018-03-18T16:18:17.681Z,40.43
2018-03-18T16:20:45.316Z,53.57
2018-03-18T16:23:12.886Z,48.30
2018-03-18T16:25:40.459Z,40.67
2018-03-18T16:28:08.039Z,39.40
2018-03-18T16:30:47.171Z,41.53
2018-03-18T16:33:14.750Z,27.43
2018-03-18T16:35:42.314Z,46.93
2018-03-18T16:38:10.511Z,26.20
2018-03-18T16:40:38.079Z,43.97
2018-03-18T16:43:05.767Z,34.10
2018-03-18T16:45:33.332Z,59.13
2018-03-18T16:48:00.910Z,30.93
2018-03-18T16:50:28.573Z,20.50
2018-03-18T16:52:56.162Z,29.53
2018-03-18T16:55:23.796Z,36.60
2018-03-18T16:57:51.370Z,37.40
2018-03-18T17:00:19.009Z,44.23
2018-03-18T17:02:46.658Z,51.93
2018-03-18T17:05:14.351Z,24.57
2018-03-18T17:07:41.921Z,25.60
2018-03-18T17:10:09.492Z,25.27
2018-03-18T17:12:37.120Z,26.83
2018-03-18T17:15:04.666Z,43.60
2018-03-18T17:17:32.249Z,21.03
2018-03-18T17:19:59.824Z,33.33
2018-03-18T17:22:27.453Z,21.73
2018-03-18T17:24:55.117Z,26.47
2018-03-18T17:27:22.755Z,25.97
2018-03-18T17:29:50.864Z,26.90
2018-03-18T17:32:18.442Z,32.90
2018-03-18T17:34:46.006Z,48.50
2018-03-18T17:37:13.585Z,44.47
2018-03-18T17:39:41.166Z,42.50
2018-03-18T17:42:08.735Z,52.40
2018-03-18T17:44:48.302Z,48.43
2018-03-18T17:50:34.473Z,27.40
2018-03-18T17:53:13.947Z,36.23
2018-03-18T17:55:41.586Z,46.30
2018-03-18T17:58:09.212Z,51.73
2018-03-18T18:00:36.832Z,48.87
2018-03-18T18:03:04.475Z,40.00
2018-03-18T18:05:32.859Z,25.30
2018-03-18T18:08:00.494Z,25.67
2018-03-18T18:10:29.235Z,34.83
2018-03-18T18:12:56.830Z,28.13
2018-03-18T18:15:24.411Z,17.87
2018-03-18T18:17:51.986Z,42.50
2018-03-18T18:20:19.607Z,36.13
2018-03-18T18:22:48.118Z,26.17
2018-03-18T18:25:15.683Z,17.67
2018-03-18T18:27:43.316Z,23.50
2018-03-18T18:30:10.878Z,35.50
2018-03-18T18:32:38.444Z,39.90
2018-03-18T18:35:06.015Z,35.03
2018-03-18T18:37:33.587Z,32.77
2018-03-18T18:40:01.174Z,50.33
2018-03-18T18:42:28.804Z,45.23
2018-03-18T18:44:56.435Z,53.60
2018-03-18T18:47:23.997Z,50.20
2018-03-18T18:49:51.662Z,28.73
2018-03-18T18:52:19.306Z,40.07
2018-03-18T18:54:46.923Z,27.20
2018-03-18T18:57:14.494Z,29.33
2018-03-18T18:59:42.062Z,34.13
2018-03-18T19:02:09.661Z,27.00
2018-03-18T19:04:37.344Z,16.23
2018-03-18T19:07:04.974Z,15.80
2018-03-18T19:09:32.608Z,17.90
2018-03-18T19:12:00.237Z,19.13
2018-03-18T19:14:27.812Z,18.23
2018-03-18T19:16:55.396Z,21.53
2018-03-18T19:19:22.989Z,27.80
2018-03-18T19:21:50.616Z,20.90
2018-03-18T19:24:18.194Z,21.93
2018-03-18T19:26:45.811Z,20.10
2018-03-18T19:29:13.427Z,25.23
2018-03-18T19:31:41.083Z,24.00
2018-03-18T19:34:08.791Z,30.00
2018-03-18T19:36:36.455Z,28.63
2018-03-18T19:39:04.200Z,23.83
2018-03-18T19:41:31.846Z,26.33
2018-03-18T19:43:59.472Z,21.67
2018-03-18T19:46:27.045Z,26.30
2018-03-18T19:48:54.655Z,22.53
2018-03-18T19:51:22.287Z,6.83
2018-03-18T19:53:49.843Z,4.07
2018-03-18T19:56:17.529Z,3.00
2018-03-18T19:58:45.116Z,4.30
2018-03-18T20:01:12.765Z,2.73
2018-03-18T20:03:40.326Z,6.70
2018-03-18T20:06:07.971Z,2.97
2018-03-18T20:08:35.606Z,3.87
2018-03-18T20:11:03.293Z,8.03
2018-03-18T20:13:30.936Z,5.40
2018-03-18T20:15:58.525Z,4.00
2018-03-18T20:18:26.169Z,4.83
2018-03-18T20:20:53.732Z,5.37
2018-03-18T20:23:21.294Z,5.33
2018-03-18T20:25:48.972Z,9.40
2018-03-18T20:28:16.570Z,4.30
2018-03-18T20:30:44.171Z,3.40
2018-03-18T20:33:11.747Z,4.27
2018-03-18T20:35:39.306Z,5.77
2018-03-18T20:38:06.930Z,6.80
2018-03-18T20:40:34.603Z,5.40
2018-03-18T20:43:02.166Z,7.40
2018-03-18T20:45:29.734Z,30.00
2018-03-18T20:47:57.366Z,5.50
2018-03-18T20:50:24.935Z,7.80
2018-03-18T20:52:52.502Z,5.60
2018-03-18T20:55:20.123Z,7.10
2018-03-18T20:57:47.754Z,6.30
2018-03-18T21:00:15.378Z,4.47
2018-03-18T21:02:42.931Z,5.47
2018-03-18T21:05:10.522Z,5.17
2018-03-18T21:07:38.092Z,6.13
2018-03-18T21:10:05.666Z,6.60
2018-03-18T21:12:33.288Z,7.87
2018-03-18T21:15:00.887Z,8.33
2018-03-18T21:17:28.444Z,6.33
2018-03-18T21:19:56.066Z,5.53
2018-03-18T21:22:23.616Z,6.60
2018-03-18T21:24:51.203Z,9.30
2018-03-18T21:27:18.771Z,6.80
2018-03-18T21:29:46.362Z,10.40
2018-03-18T21:32:13.988Z,9.13
2018-03-18T21:34:41.546Z,10.17
2018-03-18T21:37:09.153Z,13.23
2018-03-18T21:39:36.709Z,8.30
2018-03-18T21:42:04.322Z,10.17
2018-03-18T21:44:31.951Z,11.00
2018-03-18T21:46:59.516Z,10.53
2018-03-18T21:49:27.092Z,9.60
2018-03-18T21:51:54.654Z,17.63
2018-03-18T21:54:22.300Z,15.80
2018-03-18T21:56:49.855Z,14.87
2018-03-18T21:59:17.422Z,17.17
2018-03-18T22:01:45.050Z,19.40
2018-03-18T22:04:12.730Z,15.37
2018-03-18T22:06:40.381Z,28.93
2018-03-18T22:09:08.017Z,24.00
2018-03-18T22:11:35.595Z,29.40
2018-03-18T22:14:03.215Z,19.53
2018-03-18T22:16:30.782Z,21.13
2018-03-18T22:18:58.380Z,17.87
2018-03-18T22:21:25.954Z,17.93
2018-03-18T22:23:53.575Z,17.07
2018-03-18T22:26:21.213Z,14.60
2018-03-18T22:28:48.843Z,17.93
2018-03-18T22:31:17.310Z,22.47
2018-03-18T22:33:44.893Z,19.30
2018-03-18T22:36:12.459Z,22.40
2018-03-18T22:38:40.051Z,21.83
2018-03-18T22:41:07.614Z,17.77
2018-03-18T22:43:35.193Z,27.13
2018-03-18T22:46:02.765Z,25.73
2018-03-18T22:48:30.451Z,27.87
2018-03-18T22:50:58.009Z,21.10
2018-03-18T22:53:25.588Z,25.83
2018-03-18T22:55:53.222Z,23.50
2018-03-18T22:58:20.843Z,25.23
2018-03-18T23:00:48.410Z,25.80
2018-03-18T23:03:15.966Z,31.33
2018-03-18T23:05:43.534Z,29.63
2018-03-18T23:08:11.098Z,30.37
2018-03-18T23:10:38.786Z,34.13
2018-03-18T23:13:06.402Z,26.47
2018-03-18T23:15:33.964Z,28.97
2018-03-18T23:18:01.548Z,24.90
2018-03-18T23:20:29.115Z,25.03
2018-03-18T23:22:56.691Z,29.10
2018-03-18T23:25:24.254Z,28.97
2018-03-18T23:27:51.840Z,22.43
2018-03-18T23:30:19.467Z,28.10
2018-03-18T23:32:47.155Z,22.50
2018-03-18T23:35:14.772Z,27.20
2018-03-18T23:37:42.372Z,21.70
2018-03-18T23:40:09.952Z,29.17
2018-03-18T23:42:37.601Z,28.57
2018-03-18T23:45:05.253Z,29.90
2018-03-18T23:47:32.822Z,27.40
2018-03-18T23:50:00.412Z,29.63
2018-03-18T23:52:27.978Z,32.30
2018-03-18T23:54:55.540Z,36.40
2018-03-18T23:57:23.111Z,26.13
2018-03-18T23:59:50.736Z,26.33
